sensor_id;sensor_type;location;lat;lon;timestamp;temperature;humidity
11609;DHT22;5860;52.018;8.536;2023-07-13T00:00:27;17.10;99.90
11609;DHT22;5860;52.018;8.536;2023-07-13T00:02:54;17.00;99.90
11609;DHT22;5860;52.018;8.536;2023-07-13T00:05:22;17.00;99.90
11609;DHT22;5860;52.018;8.536;2023-07-13T00:07:52;17.00;99.90
11609;DHT22;5860;52.018;8.536;2023-07-13T00:10:19;17.00;99.90
11609;DHT22;5860;52.018;8.536;2023-07-13T00:12:46;17.00;99.90
11609;DHT22;5860;52.018;8.536;2023-07-13T00:15:20;17.00;99.90
11609;DHT22;5860;52.018;8.536;2023-07-13T00:17:54;17.00;99.90
11609;DHT22;5860;52.018;8.536;2023-07-13T00:20:23;17.00;99.90
11609;DHT22;5860;52.018;8.536;2023-07-13T00:22:52;17.00;99.90
11609;DHT22;5860;52.018;8.536;2023-07-13T00:25:24;17.10;99.90
11609;DHT22;5860;52.018;8.536;2023-07-13T00:27:51;17.20;99.90
11609;DHT22;5860;52.018;8.536;2023-07-13T00:30:18;17.20;99.90
11609;DHT22;5860;52.018;8.536;2023-07-13T00:32:45;17.10;99.90
11609;DHT22;5860;52.018;8.536;2023-07-13T00:35:14;17.10;99.90
11609;DHT22;5860;52.018;8.536;2023-07-13T00:37:42;17.00;99.90
11609;DHT22;5860;52.018;8.536;2023-07-13T00:40:12;17.10;99.90
11609;DHT22;5860;52.018;8.536;2023-07-13T00:42:40;17.20;99.90
11609;DHT22;5860;52.018;8.536;2023-07-13T00:47:55;17.30;99.90
11609;DHT22;5860;52.018;8.536;2023-07-13T00:50:24;17.30;99.90
11609;DHT22;5860;52.018;8.536;2023-07-13T00:52:54;17.20;99.90
11609;DHT22;5860;52.018;8.536;2023-07-13T00:55:22;17.20;99.90
11609;DHT22;5860;52.018;8.536;2023-07-13T00:57:49;17.20;99.90
11609;DHT22;5860;52.018;8.536;2023-07-13T01:00:16;17.10;99.90
11609;DHT22;5860;52.018;8.536;2023-07-13T01:02:45;17.10;99.90
11609;DHT22;5860;52.018;8.536;2023-07-13T01:05:18;17.10;99.90
11609;DHT22;5860;52.018;8.536;2023-07-13T01:07:48;17.10;99.90
11609;DHT22;5860;52.018;8.536;2023-07-13T01:10:16;17.00;99.90
11609;DHT22;5860;52.018;8.536;2023-07-13T01:12:43;16.90;99.90
11609;DHT22;5860;52.018;8.536;2023-07-13T01:15:35;16.80;99.90
11609;DHT22;5860;52.018;8.536;2023-07-13T01:18:06;16.80;99.90
11609;DHT22;5860;52.018;8.536;2023-07-13T01:20:34;16.70;99.90
11609;DHT22;5860;52.018;8.536;2023-07-13T01:23:08;16.70;99.90
11609;DHT22;5860;52.018;8.536;2023-07-13T01:25:37;16.70;99.90
11609;DHT22;5860;52.018;8.536;2023-07-13T01:28:06;16.80;99.90
11609;DHT22;5860;52.018;8.536;2023-07-13T01:30:33;16.90;99.90
11609;DHT22;5860;52.018;8.536;2023-07-13T01:33:00;17.00;99.90
11609;DHT22;5860;52.018;8.536;2023-07-13T01:35:26;17.10;99.90
11609;DHT22;5860;52.018;8.536;2023-07-13T01:37:53;17.00;99.90
11609;DHT22;5860;52.018;8.536;2023-07-13T01:40:21;17.10;99.90
11609;DHT22;5860;52.018;8.536;2023-07-13T01:42:48;17.00;99.90
11609;DHT22;5860;52.018;8.536;2023-07-13T01:45:15;17.20;99.90
11609;DHT22;5860;52.018;8.536;2023-07-13T01:47:42;17.30;99.90
11609;DHT22;5860;52.018;8.536;2023-07-13T01:50:09;17.30;99.90
11609;DHT22;5860;52.018;8.536;2023-07-13T01:52:36;17.20;99.90
11609;DHT22;5860;52.018;8.536;2023-07-13T01:55:03;17.20;99.90
11609;DHT22;5860;52.018;8.536;2023-07-13T01:57:30;17.10;99.90
11609;DHT22;5860;52.018;8.536;2023-07-13T01:59:57;17.10;99.90
11609;DHT22;5860;52.018;8.536;2023-07-13T02:02:24;17.10;99.90
11609;DHT22;5860;52.018;8.536;2023-07-13T02:04:51;17.10;99.90
11609;DHT22;5860;52.018;8.536;2023-07-13T02:07:18;17.10;99.90
11609;DHT22;5860;52.018;8.536;2023-07-13T02:09:45;17.10;99.90
11609;DHT22;5860;52.018;8.536;2023-07-13T02:12:11;17.10;99.90
11609;DHT22;5860;52.018;8.536;2023-07-13T02:14:41;17.20;99.90
11609;DHT22;5860;52.018;8.536;2023-07-13T02:17:09;17.00;99.90
11609;DHT22;5860;52.018;8.536;2023-07-13T02:19:36;16.90;99.90
11609;DHT22;5860;52.018;8.536;2023-07-13T02:22:03;17.00;99.90
11609;DHT22;5860;52.018;8.536;2023-07-13T02:24:30;17.10;99.90
11609;DHT22;5860;52.018;8.536;2023-07-13T02:26:57;17.00;99.90
11609;DHT22;5860;52.018;8.536;2023-07-13T02:29:24;16.90;99.90
11609;DHT22;5860;52.018;8.536;2023-07-13T02:31:51;16.70;99.90
11609;DHT22;5860;52.018;8.536;2023-07-13T02:34:17;16.60;99.90
11609;DHT22;5860;52.018;8.536;2023-07-13T02:36:44;16.50;99.90
11609;DHT22;5860;52.018;8.536;2023-07-13T02:39:13;16.40;99.90
11609;DHT22;5860;52.018;8.536;2023-07-13T02:41:40;16.40;99.90
11609;DHT22;5860;52.018;8.536;2023-07-13T02:44:07;16.30;99.90
11609;DHT22;5860;52.018;8.536;2023-07-13T02:46:36;16.20;99.90
11609;DHT22;5860;52.018;8.536;2023-07-13T02:49:03;16.20;99.90
11609;DHT22;5860;52.018;8.536;2023-07-13T02:51:31;16.20;99.90
11609;DHT22;5860;52.018;8.536;2023-07-13T02:54:04;16.10;99.90
11609;DHT22;5860;52.018;8.536;2023-07-13T02:56:31;16.10;99.90
11609;DHT22;5860;52.018;8.536;2023-07-13T02:58:59;16.10;99.90
11609;DHT22;5860;52.018;8.536;2023-07-13T03:01:26;16.00;99.90
11609;DHT22;5860;52.018;8.536;2023-07-13T03:03:52;16.00;99.90
11609;DHT22;5860;52.018;8.536;2023-07-13T03:06:20;16.00;99.90
11609;DHT22;5860;52.018;8.536;2023-07-13T03:08:48;15.90;99.90
11609;DHT22;5860;52.018;8.536;2023-07-13T03:11:18;15.80;99.90
11609;DHT22;5860;52.018;8.536;2023-07-13T03:13:46;15.80;99.90
11609;DHT22;5860;52.018;8.536;2023-07-13T03:16:13;15.60;99.90
11609;DHT22;5860;52.018;8.536;2023-07-13T03:18:46;15.70;99.90
11609;DHT22;5860;52.018;8.536;2023-07-13T03:21:14;15.60;99.90
11609;DHT22;5860;52.018;8.536;2023-07-13T03:23:41;15.60;99.90
11609;DHT22;5860;52.018;8.536;2023-07-13T03:26:11;15.70;99.90
11609;DHT22;5860;52.018;8.536;2023-07-13T03:28:40;15.60;99.90
11609;DHT22;5860;52.018;8.536;2023-07-13T03:31:10;15.60;99.90
11609;DHT22;5860;52.018;8.536;2023-07-13T03:33:37;15.50;99.90
11609;DHT22;5860;52.018;8.536;2023-07-13T03:36:05;15.60;99.90
11609;DHT22;5860;52.018;8.536;2023-07-13T03:38:33;15.60;99.90
11609;DHT22;5860;52.018;8.536;2023-07-13T03:41:00;15.70;99.90
11609;DHT22;5860;52.018;8.536;2023-07-13T03:43:27;15.60;99.90
11609;DHT22;5860;52.018;8.536;2023-07-13T03:45:54;15.70;99.90
11609;DHT22;5860;52.018;8.536;2023-07-13T03:48:21;15.70;99.90
11609;DHT22;5860;52.018;8.536;2023-07-13T03:50:48;15.80;99.90
11609;DHT22;5860;52.018;8.536;2023-07-13T03:53:18;15.80;99.90
11609;DHT22;5860;52.018;8.536;2023-07-13T03:55:45;15.80;99.90
11609;DHT22;5860;52.018;8.536;2023-07-13T04:00:54;15.90;99.90
11609;DHT22;5860;52.018;8.536;2023-07-13T04:03:22;15.90;99.90
11609;DHT22;5860;52.018;8.536;2023-07-13T04:05:49;16.20;99.90
11609;DHT22;5860;52.018;8.536;2023-07-13T04:08:16;16.30;99.90
11609;DHT22;5860;52.018;8.536;2023-07-13T04:10:44;17.30;99.90
11609;DHT22;5860;52.018;8.536;2023-07-13T04:13:11;18.40;99.90
11609;DHT22;5860;52.018;8.536;2023-07-13T04:15:39;18.90;99.90
11609;DHT22;5860;52.018;8.536;2023-07-13T04:18:05;19.40;99.90
11609;DHT22;5860;52.018;8.536;2023-07-13T04:20:33;19.50;99.90
11609;DHT22;5860;52.018;8.536;2023-07-13T04:22:59;19.80;99.90
11609;DHT22;5860;52.018;8.536;2023-07-13T04:25:27;20.60;99.90
11609;DHT22;5860;52.018;8.536;2023-07-13T04:27:54;20.70;99.90
11609;DHT22;5860;52.018;8.536;2023-07-13T04:30:22;20.80;99.90
11609;DHT22;5860;52.018;8.536;2023-07-13T04:32:51;21.70;99.90
11609;DHT22;5860;52.018;8.536;2023-07-13T04:35:20;21.50;99.90
11609;DHT22;5860;52.018;8.536;2023-07-13T04:37:50;21.10;99.90
11609;DHT22;5860;52.018;8.536;2023-07-13T04:40:17;21.00;99.90
11609;DHT22;5860;52.018;8.536;2023-07-13T04:42:45;22.00;99.90
11609;DHT22;5860;52.018;8.536;2023-07-13T04:45:13;22.20;99.90
11609;DHT22;5860;52.018;8.536;2023-07-13T04:47:41;21.70;99.90
11609;DHT22;5860;52.018;8.536;2023-07-13T04:50:09;22.30;99.90
11609;DHT22;5860;52.018;8.536;2023-07-13T04:52:37;22.70;99.90
11609;DHT22;5860;52.018;8.536;2023-07-13T04:55:04;23.60;99.90
11609;DHT22;5860;52.018;8.536;2023-07-13T04:57:31;23.40;99.90
11609;DHT22;5860;52.018;8.536;2023-07-13T04:59:59;22.40;99.90
11609;DHT22;5860;52.018;8.536;2023-07-13T05:02:27;23.20;99.90
11609;DHT22;5860;52.018;8.536;2023-07-13T05:04:55;23.90;99.90
11609;DHT22;5860;52.018;8.536;2023-07-13T05:07:22;24.50;99.90
11609;DHT22;5860;52.018;8.536;2023-07-13T05:09:49;24.30;99.90
11609;DHT22;5860;52.018;8.536;2023-07-13T05:12:16;23.70;99.90
11609;DHT22;5860;52.018;8.536;2023-07-13T05:14:43;23.40;99.90
11609;DHT22;5860;52.018;8.536;2023-07-13T05:17:10;24.00;99.90
11609;DHT22;5860;52.018;8.536;2023-07-13T05:19:37;24.20;99.90
11609;DHT22;5860;52.018;8.536;2023-07-13T05:22:04;24.20;99.90
11609;DHT22;5860;52.018;8.536;2023-07-13T05:24:32;24.50;99.90
11609;DHT22;5860;52.018;8.536;2023-07-13T05:26:59;24.50;99.90
11609;DHT22;5860;52.018;8.536;2023-07-13T05:29:26;25.00;99.90
11609;DHT22;5860;52.018;8.536;2023-07-13T05:31:53;25.50;99.90
11609;DHT22;5860;52.018;8.536;2023-07-13T05:34:19;25.40;99.90
11609;DHT22;5860;52.018;8.536;2023-07-13T05:36:46;24.80;99.90
11609;DHT22;5860;52.018;8.536;2023-07-13T05:39:13;24.90;99.90
11609;DHT22;5860;52.018;8.536;2023-07-13T05:41:41;24.40;99.90
11609;DHT22;5860;52.018;8.536;2023-07-13T05:44:08;23.10;99.90
11609;DHT22;5860;52.018;8.536;2023-07-13T05:46:35;25.30;99.90
11609;DHT22;5860;52.018;8.536;2023-07-13T05:49:02;25.00;99.90
11609;DHT22;5860;52.018;8.536;2023-07-13T05:51:29;24.80;99.90
11609;DHT22;5860;52.018;8.536;2023-07-13T05:53:56;25.30;99.90
11609;DHT22;5860;52.018;8.536;2023-07-13T05:56:23;26.20;99.90
11609;DHT22;5860;52.018;8.536;2023-07-13T05:58:52;24.40;99.90
11609;DHT22;5860;52.018;8.536;2023-07-13T06:01:19;25.50;99.90
11609;DHT22;5860;52.018;8.536;2023-07-13T06:03:47;25.00;99.90
11609;DHT22;5860;52.018;8.536;2023-07-13T06:06:15;25.80;99.90
11609;DHT22;5860;52.018;8.536;2023-07-13T06:08:42;25.70;99.90
11609;DHT22;5860;52.018;8.536;2023-07-13T06:11:17;24.60;99.90
11609;DHT22;5860;52.018;8.536;2023-07-13T06:13:45;25.90;99.90
11609;DHT22;5860;52.018;8.536;2023-07-13T06:16:13;26.50;99.90
11609;DHT22;5860;52.018;8.536;2023-07-13T06:18:40;25.60;99.90
11609;DHT22;5860;52.018;8.536;2023-07-13T06:21:08;24.50;99.90
11609;DHT22;5860;52.018;8.536;2023-07-13T06:23:36;25.30;99.90
11609;DHT22;5860;52.018;8.536;2023-07-13T06:26:04;25.30;99.90
11609;DHT22;5860;52.018;8.536;2023-07-13T06:28:34;25.10;99.90
11609;DHT22;5860;52.018;8.536;2023-07-13T06:31:01;25.30;99.90
11609;DHT22;5860;52.018;8.536;2023-07-13T06:33:28;25.80;99.90
11609;DHT22;5860;52.018;8.536;2023-07-13T06:35:55;24.30;99.90
11609;DHT22;5860;52.018;8.536;2023-07-13T06:38:22;22.90;99.90
11609;DHT22;5860;52.018;8.536;2023-07-13T06:40:49;23.80;99.90
11609;DHT22;5860;52.018;8.536;2023-07-13T06:43:16;23.60;99.90
11609;DHT22;5860;52.018;8.536;2023-07-13T06:45:47;23.20;99.90
11609;DHT22;5860;52.018;8.536;2023-07-13T06:48:16;22.90;99.90
11609;DHT22;5860;52.018;8.536;2023-07-13T06:50:44;23.40;99.90
11609;DHT22;5860;52.018;8.536;2023-07-13T06:53:12;24.30;99.90
11609;DHT22;5860;52.018;8.536;2023-07-13T06:55:39;24.60;99.90
11609;DHT22;5860;52.018;8.536;2023-07-13T06:58:06;25.10;99.90
11609;DHT22;5860;52.018;8.536;2023-07-13T07:00:33;25.90;99.90
11609;DHT22;5860;52.018;8.536;2023-07-13T07:03:00;24.90;99.90
11609;DHT22;5860;52.018;8.536;2023-07-13T07:05:27;24.80;99.90
11609;DHT22;5860;52.018;8.536;2023-07-13T07:07:55;24.50;99.90
11609;DHT22;5860;52.018;8.536;2023-07-13T07:10:22;25.80;99.90
11609;DHT22;5860;52.018;8.536;2023-07-13T07:12:49;24.60;99.90
11609;DHT22;5860;52.018;8.536;2023-07-13T07:15:17;25.40;99.90
11609;DHT22;5860;52.018;8.536;2023-07-13T07:17:44;25.50;99.90
11609;DHT22;5860;52.018;8.536;2023-07-13T07:20:11;24.70;99.90
11609;DHT22;5860;52.018;8.536;2023-07-13T07:22:39;23.30;99.90
11609;DHT22;5860;52.018;8.536;2023-07-13T07:25:06;25.10;99.90
11609;DHT22;5860;52.018;8.536;2023-07-13T07:27:33;25.50;99.90
11609;DHT22;5860;52.018;8.536;2023-07-13T07:30:03;24.80;99.90
11609;DHT22;5860;52.018;8.536;2023-07-13T07:32:33;24.20;99.90
11609;DHT22;5860;52.018;8.536;2023-07-13T07:35:03;25.10;99.90
11609;DHT22;5860;52.018;8.536;2023-07-13T07:37:30;25.00;99.90
11609;DHT22;5860;52.018;8.536;2023-07-13T07:40:00;24.50;99.90
11609;DHT22;5860;52.018;8.536;2023-07-13T07:42:30;24.50;99.90
11609;DHT22;5860;52.018;8.536;2023-07-13T07:44:57;24.90;99.90
11609;DHT22;5860;52.018;8.536;2023-07-13T07:47:24;24.30;99.90
11609;DHT22;5860;52.018;8.536;2023-07-13T07:49:51;24.90;99.90
11609;DHT22;5860;52.018;8.536;2023-07-13T07:52:19;24.80;99.90
11609;DHT22;5860;52.018;8.536;2023-07-13T07:54:46;24.40;99.90
11609;DHT22;5860;52.018;8.536;2023-07-13T07:57:16;22.50;99.90
11609;DHT22;5860;52.018;8.536;2023-07-13T08:00:03;23.00;99.90
11609;DHT22;5860;52.018;8.536;2023-07-13T08:02:33;24.50;99.90
11609;DHT22;5860;52.018;8.536;2023-07-13T08:05:03;23.20;99.90
11609;DHT22;5860;52.018;8.536;2023-07-13T08:07:33;24.00;99.90
11609;DHT22;5860;52.018;8.536;2023-07-13T08:10:00;23.80;99.90
11609;DHT22;5860;52.018;8.536;2023-07-13T08:12:27;24.10;99.90
11609;DHT22;5860;52.018;8.536;2023-07-13T08:14:57;23.60;99.90
11609;DHT22;5860;52.018;8.536;2023-07-13T08:17:25;24.10;99.90
11609;DHT22;5860;52.018;8.536;2023-07-13T08:19:53;23.80;99.90
11609;DHT22;5860;52.018;8.536;2023-07-13T08:22:20;22.60;99.90
11609;DHT22;5860;52.018;8.536;2023-07-13T08:24:47;21.50;99.90
11609;DHT22;5860;52.018;8.536;2023-07-13T08:27:25;23.00;99.90
11609;DHT22;5860;52.018;8.536;2023-07-13T08:29:53;23.20;99.90
11609;DHT22;5860;52.018;8.536;2023-07-13T08:32:22;23.60;99.90
11609;DHT22;5860;52.018;8.536;2023-07-13T08:34:50;22.20;99.90
11609;DHT22;5860;52.018;8.536;2023-07-13T08:37:17;23.20;99.90
11609;DHT22;5860;52.018;8.536;2023-07-13T08:39:44;22.30;99.90
11609;DHT22;5860;52.018;8.536;2023-07-13T08:47:38;22.00;99.90
11609;DHT22;5860;52.018;8.536;2023-07-13T08:50:11;22.00;99.90
11609;DHT22;5860;52.018;8.536;2023-07-13T08:52:41;21.30;99.90
11609;DHT22;5860;52.018;8.536;2023-07-13T08:55:21;21.70;99.90
11609;DHT22;5860;52.018;8.536;2023-07-13T08:57:54;21.80;99.90
11609;DHT22;5860;52.018;8.536;2023-07-13T09:00:25;22.90;99.90
11609;DHT22;5860;52.018;8.536;2023-07-13T09:02:59;23.10;99.90
11609;DHT22;5860;52.018;8.536;2023-07-13T09:05:38;23.20;99.90
11609;DHT22;5860;52.018;8.536;2023-07-13T09:10:45;22.80;99.90
11609;DHT22;5860;52.018;8.536;2023-07-13T09:15:46;23.70;99.90
11609;DHT22;5860;52.018;8.536;2023-07-13T09:18:44;23.80;99.90
11609;DHT22;5860;52.018;8.536;2023-07-13T09:21:26;24.00;99.90
11609;DHT22;5860;52.018;8.536;2023-07-13T09:23:59;23.90;99.90
11609;DHT22;5860;52.018;8.536;2023-07-13T09:26:29;23.30;99.90
11609;DHT22;5860;52.018;8.536;2023-07-13T09:29:11;23.20;99.90
11609;DHT22;5860;52.018;8.536;2023-07-13T09:31:43;22.60;99.90
11609;DHT22;5860;52.018;8.536;2023-07-13T09:34:13;22.00;99.90
11609;DHT22;5860;52.018;8.536;2023-07-13T09:36:40;23.00;99.90
11609;DHT22;5860;52.018;8.536;2023-07-13T09:41:51;24.10;99.90
11609;DHT22;5860;52.018;8.536;2023-07-13T09:44:28;23.40;99.90
11609;DHT22;5860;52.018;8.536;2023-07-13T09:46:58;23.50;99.90
11609;DHT22;5860;52.018;8.536;2023-07-13T09:49:31;23.40;99.90
11609;DHT22;5860;52.018;8.536;2023-07-13T09:52:05;23.20;99.90
11609;DHT22;5860;52.018;8.536;2023-07-13T09:54:34;22.50;99.90
11609;DHT22;5860;52.018;8.536;2023-07-13T09:57:08;23.00;99.90
11609;DHT22;5860;52.018;8.536;2023-07-13T09:59:42;23.30;99.90
11609;DHT22;5860;52.018;8.536;2023-07-13T10:04:57;22.00;99.90
11609;DHT22;5860;52.018;8.536;2023-07-13T10:07:25;22.00;99.90
11609;DHT22;5860;52.018;8.536;2023-07-13T10:10:00;21.60;99.90
11609;DHT22;5860;52.018;8.536;2023-07-13T10:12:35;21.90;99.90
11609;DHT22;5860;52.018;8.536;2023-07-13T10:15:03;22.40;99.90
11609;DHT22;5860;52.018;8.536;2023-07-13T10:17:51;23.20;99.90
11609;DHT22;5860;52.018;8.536;2023-07-13T10:20:20;23.60;99.90
11609;DHT22;5860;52.018;8.536;2023-07-13T10:23:04;23.60;99.90
11609;DHT22;5860;52.018;8.536;2023-07-13T10:25:34;24.50;99.90
11609;DHT22;5860;52.018;8.536;2023-07-13T10:28:32;24.60;99.90
11609;DHT22;5860;52.018;8.536;2023-07-13T10:31:00;24.20;99.90
11609;DHT22;5860;52.018;8.536;2023-07-13T10:33:28;24.70;99.90
11609;DHT22;5860;52.018;8.536;2023-07-13T10:36:28;25.30;99.90
11609;DHT22;5860;52.018;8.536;2023-07-13T10:38:48;25.20;99.90
11609;DHT22;5860;52.018;8.536;2023-07-13T10:41:21;25.40;99.90
11609;DHT22;5860;52.018;8.536;2023-07-13T10:43:52;25.70;99.90
11609;DHT22;5860;52.018;8.536;2023-07-13T10:46:23;25.70;99.90
11609;DHT22;5860;52.018;8.536;2023-07-13T10:48:54;25.50;99.90
11609;DHT22;5860;52.018;8.536;2023-07-13T10:51:22;24.90;99.90
11609;DHT22;5860;52.018;8.536;2023-07-13T10:54:12;24.90;99.90
11609;DHT22;5860;52.018;8.536;2023-07-13T10:56:48;24.90;99.90
11609;DHT22;5860;52.018;8.536;2023-07-13T10:59:27;25.60;99.90
11609;DHT22;5860;52.018;8.536;2023-07-13T11:02:09;24.20;99.90
11609;DHT22;5860;52.018;8.536;2023-07-13T11:04:46;24.30;99.90
11609;DHT22;5860;52.018;8.536;2023-07-13T11:07:23;24.30;99.90
11609;DHT22;5860;52.018;8.536;2023-07-13T11:10:04;23.90;99.90
11609;DHT22;5860;52.018;8.536;2023-07-13T11:15:14;24.00;99.90
11609;DHT22;5860;52.018;8.536;2023-07-13T11:17:54;24.10;99.90
11609;DHT22;5860;52.018;8.536;2023-07-13T11:20:36;23.70;99.90
11609;DHT22;5860;52.018;8.536;2023-07-13T11:25:39;23.30;99.90
11609;DHT22;5860;52.018;8.536;2023-07-13T11:35:38;23.90;99.90
11609;DHT22;5860;52.018;8.536;2023-07-13T11:38:24;23.90;99.90
11609;DHT22;5860;52.018;8.536;2023-07-13T11:40:55;23.40;99.90
11609;DHT22;5860;52.018;8.536;2023-07-13T11:43:23;23.20;99.90
11609;DHT22;5860;52.018;8.536;2023-07-13T11:45:50;23.20;99.90
11609;DHT22;5860;52.018;8.536;2023-07-13T11:48:27;23.10;99.90
11609;DHT22;5860;52.018;8.536;2023-07-13T11:51:01;23.30;99.90
11609;DHT22;5860;52.018;8.536;2023-07-13T11:53:38;23.60;99.90
11609;DHT22;5860;52.018;8.536;2023-07-13T11:56:06;23.80;99.90
11609;DHT22;5860;52.018;8.536;2023-07-13T11:58:33;24.20;99.90
11609;DHT22;5860;52.018;8.536;2023-07-13T12:01:02;23.80;99.90
11609;DHT22;5860;52.018;8.536;2023-07-13T12:03:33;23.30;99.90
11609;DHT22;5860;52.018;8.536;2023-07-13T12:06:06;23.20;99.90
11609;DHT22;5860;52.018;8.536;2023-07-13T12:08:49;23.60;99.90
11609;DHT22;5860;52.018;8.536;2023-07-13T12:11:17;23.40;99.90
11609;DHT22;5860;52.018;8.536;2023-07-13T12:13:46;23.40;99.90
11609;DHT22;5860;52.018;8.536;2023-07-13T12:16:17;23.90;99.90
11609;DHT22;5860;52.018;8.536;2023-07-13T12:18:47;23.80;99.90
11609;DHT22;5860;52.018;8.536;2023-07-13T12:21:17;23.70;99.90
11609;DHT22;5860;52.018;8.536;2023-07-13T12:23:48;23.70;99.90
11609;DHT22;5860;52.018;8.536;2023-07-13T12:26:17;23.60;99.90
11609;DHT22;5860;52.018;8.536;2023-07-13T12:28:53;23.40;99.90
11609;DHT22;5860;52.018;8.536;2023-07-13T12:31:31;23.00;99.90
11609;DHT22;5860;52.018;8.536;2023-07-13T12:34:14;23.00;99.90
11609;DHT22;5860;52.018;8.536;2023-07-13T12:36:56;23.20;99.90
11609;DHT22;5860;52.018;8.536;2023-07-13T12:39:28;23.20;99.90
11609;DHT22;5860;52.018;8.536;2023-07-13T12:42:21;22.80;99.90
11609;DHT22;5860;52.018;8.536;2023-07-13T12:44:53;23.00;99.90
11609;DHT22;5860;52.018;8.536;2023-07-13T12:47:21;23.80;99.90
11609;DHT22;5860;52.018;8.536;2023-07-13T12:49:53;23.90;99.90
11609;DHT22;5860;52.018;8.536;2023-07-13T12:52:23;23.90;99.90
11609;DHT22;5860;52.018;8.536;2023-07-13T12:55:04;23.50;99.90
11609;DHT22;5860;52.018;8.536;2023-07-13T12:57:39;23.40;99.90
11609;DHT22;5860;52.018;8.536;2023-07-13T13:00:22;23.30;99.90
11609;DHT22;5860;52.018;8.536;2023-07-13T13:02:56;23.40;99.90
11609;DHT22;5860;52.018;8.536;2023-07-13T13:05:44;23.80;99.90
11609;DHT22;5860;52.018;8.536;2023-07-13T13:08:12;23.60;99.90
11609;DHT22;5860;52.018;8.536;2023-07-13T13:10:39;23.80;99.90
11609;DHT22;5860;52.018;8.536;2023-07-13T13:13:06;23.90;99.90
11609;DHT22;5860;52.018;8.536;2023-07-13T13:15:35;24.30;99.90
11609;DHT22;5860;52.018;8.536;2023-07-13T13:18:22;24.30;99.90
11609;DHT22;5860;52.018;8.536;2023-07-13T13:20:50;24.20;99.90
11609;DHT22;5860;52.018;8.536;2023-07-13T13:23:20;24.00;99.90
11609;DHT22;5860;52.018;8.536;2023-07-13T13:25:49;24.20;99.90
11609;DHT22;5860;52.018;8.536;2023-07-13T13:28:19;23.90;99.90
11609;DHT22;5860;52.018;8.536;2023-07-13T13:30:49;23.70;99.90
11609;DHT22;5860;52.018;8.536;2023-07-13T13:33:19;23.60;99.90
11609;DHT22;5860;52.018;8.536;2023-07-13T13:35:47;23.50;99.90
11609;DHT22;5860;52.018;8.536;2023-07-13T13:38:17;23.10;99.90
11609;DHT22;5860;52.018;8.536;2023-07-13T13:40:45;22.90;99.90
11609;DHT22;5860;52.018;8.536;2023-07-13T13:43:22;22.80;99.90
11609;DHT22;5860;52.018;8.536;2023-07-13T13:45:56;22.30;99.90
11609;DHT22;5860;52.018;8.536;2023-07-13T13:48:34;21.90;99.90
11609;DHT22;5860;52.018;8.536;2023-07-13T13:51:13;21.40;99.90
11609;DHT22;5860;52.018;8.536;2023-07-13T13:53:41;20.80;99.90
11609;DHT22;5860;52.018;8.536;2023-07-13T13:56:09;20.10;99.90
11609;DHT22;5860;52.018;8.536;2023-07-13T13:58:36;19.60;99.90
11609;DHT22;5860;52.018;8.536;2023-07-13T14:01:03;19.30;99.90
11609;DHT22;5860;52.018;8.536;2023-07-13T14:03:35;19.10;99.90
11609;DHT22;5860;52.018;8.536;2023-07-13T14:06:02;18.70;99.90
11609;DHT22;5860;52.018;8.536;2023-07-13T14:08:28;18.50;99.90
11609;DHT22;5860;52.018;8.536;2023-07-13T14:10:57;18.40;99.90
11609;DHT22;5860;52.018;8.536;2023-07-13T14:13:33;18.40;99.90
11609;DHT22;5860;52.018;8.536;2023-07-13T14:16:04;18.40;99.90
11609;DHT22;5860;52.018;8.536;2023-07-13T14:18:34;18.60;99.90
11609;DHT22;5860;52.018;8.536;2023-07-13T14:21:01;18.90;99.90
11609;DHT22;5860;52.018;8.536;2023-07-13T14:23:28;19.00;99.90
11609;DHT22;5860;52.018;8.536;2023-07-13T14:25:55;19.20;99.90
11609;DHT22;5860;52.018;8.536;2023-07-13T14:28:26;19.50;99.90
11609;DHT22;5860;52.018;8.536;2023-07-13T14:30:54;19.30;99.90
11609;DHT22;5860;52.018;8.536;2023-07-13T14:33:23;19.00;99.90
11609;DHT22;5860;52.018;8.536;2023-07-13T14:35:50;18.90;99.90
11609;DHT22;5860;52.018;8.536;2023-07-13T14:38:20;18.90;99.90
11609;DHT22;5860;52.018;8.536;2023-07-13T14:40:47;19.00;99.90
11609;DHT22;5860;52.018;8.536;2023-07-13T14:43:16;18.80;99.90
11609;DHT22;5860;52.018;8.536;2023-07-13T14:45:49;19.10;99.90
11609;DHT22;5860;52.018;8.536;2023-07-13T14:48:22;19.10;99.90
11609;DHT22;5860;52.018;8.536;2023-07-13T14:50:55;19.20;99.90
11609;DHT22;5860;52.018;8.536;2023-07-13T14:53:25;19.40;99.90
11609;DHT22;5860;52.018;8.536;2023-07-13T14:55:54;19.40;99.90
11609;DHT22;5860;52.018;8.536;2023-07-13T14:58:21;19.20;99.90
11609;DHT22;5860;52.018;8.536;2023-07-13T15:00:48;18.90;99.90
11609;DHT22;5860;52.018;8.536;2023-07-13T15:03:20;18.80;99.90
11609;DHT22;5860;52.018;8.536;2023-07-13T15:05:51;18.40;99.90
11609;DHT22;5860;52.018;8.536;2023-07-13T15:08:19;18.00;99.90
11609;DHT22;5860;52.018;8.536;2023-07-13T15:10:46;17.90;99.90
11609;DHT22;5860;52.018;8.536;2023-07-13T15:13:20;17.90;99.90
11609;DHT22;5860;52.018;8.536;2023-07-13T15:15:49;18.10;99.90
11609;DHT22;5860;52.018;8.536;2023-07-13T15:18:20;18.20;99.90
11609;DHT22;5860;52.018;8.536;2023-07-13T15:20:48;18.10;99.90
11609;DHT22;5860;52.018;8.536;2023-07-13T15:23:17;18.10;99.90
11609;DHT22;5860;52.018;8.536;2023-07-13T15:25:44;18.10;99.90
11609;DHT22;5860;52.018;8.536;2023-07-13T15:28:12;18.10;99.90
11609;DHT22;5860;52.018;8.536;2023-07-13T15:30:48;18.10;99.90
11609;DHT22;5860;52.018;8.536;2023-07-13T15:35:48;18.10;99.90
11609;DHT22;5860;52.018;8.536;2023-07-13T15:38:20;18.00;99.90
11609;DHT22;5860;52.018;8.536;2023-07-13T15:40:48;18.10;99.90
11609;DHT22;5860;52.018;8.536;2023-07-13T15:43:16;18.00;99.90
11609;DHT22;5860;52.018;8.536;2023-07-13T15:45:45;18.10;99.90
11609;DHT22;5860;52.018;8.536;2023-07-13T15:48:18;18.20;99.90
11609;DHT22;5860;52.018;8.536;2023-07-13T15:50:48;18.30;99.90
11609;DHT22;5860;52.018;8.536;2023-07-13T15:53:20;18.30;99.90
11609;DHT22;5860;52.018;8.536;2023-07-13T15:55:50;18.10;99.90
11609;DHT22;5860;52.018;8.536;2023-07-13T15:58:18;18.20;99.90
11609;DHT22;5860;52.018;8.536;2023-07-13T16:00:45;18.10;99.90
11609;DHT22;5860;52.018;8.536;2023-07-13T16:03:12;18.10;99.90
11609;DHT22;5860;52.018;8.536;2023-07-13T16:05:39;18.20;99.90
11609;DHT22;5860;52.018;8.536;2023-07-13T16:08:20;18.50;99.90
11609;DHT22;5860;52.018;8.536;2023-07-13T16:10:48;18.40;99.90
11609;DHT22;5860;52.018;8.536;2023-07-13T16:13:16;18.30;99.90
11609;DHT22;5860;52.018;8.536;2023-07-13T16:15:46;18.30;99.90
11609;DHT22;5860;52.018;8.536;2023-07-13T16:18:13;18.40;99.90
11609;DHT22;5860;52.018;8.536;2023-07-13T16:20:47;18.40;99.90
11609;DHT22;5860;52.018;8.536;2023-07-13T16:23:16;18.70;99.90
11609;DHT22;5860;52.018;8.536;2023-07-13T16:25:44;18.60;99.90
11609;DHT22;5860;52.018;8.536;2023-07-13T16:28:12;18.70;99.90
11609;DHT22;5860;52.018;8.536;2023-07-13T16:30:41;19.20;99.90
11609;DHT22;5860;52.018;8.536;2023-07-13T16:33:08;19.60;99.90
11609;DHT22;5860;52.018;8.536;2023-07-13T16:35:40;19.90;99.90
11609;DHT22;5860;52.018;8.536;2023-07-13T16:38:16;20.00;99.90